sensor_id;sensor_type;location;lat;lon;timestamp;P1;durP1;ratioP1;P2;durP2;ratioP2
25952;SDS011;13750;50.804;8.764;2023-08-06T00:00:05;1.03;;;0.93;;
25952;SDS011;13750;50.804;8.764;2023-08-06T00:02:31;1.15;;;0.90;;
25952;SDS011;13750;50.804;8.764;2023-08-06T00:04:57;1.17;;;1.00;;
25952;SDS011;13750;50.804;8.764;2023-08-06T00:07:22;1.30;;;1.20;;
25952;SDS011;13750;50.804;8.764;2023-08-06T00:09:48;1.63;;;1.53;;
25952;SDS011;13750;50.804;8.764;2023-08-06T00:12:13;1.70;;;1.37;;
25952;SDS011;13750;50.804;8.764;2023-08-06T00:14:39;1.50;;;1.40;;
25952;SDS011;13750;50.804;8.764;2023-08-06T00:17:05;1.38;;;1.27;;
25952;SDS011;13750;50.804;8.764;2023-08-06T00:19:31;1.10;;;1.00;;
25952;SDS011;13750;50.804;8.764;2023-08-06T00:21:57;1.33;;;1.23;;
25952;SDS011;13750;50.804;8.764;2023-08-06T00:24:23;1.47;;;1.17;;
25952;SDS011;13750;50.804;8.764;2023-08-06T00:26:48;2.10;;;1.80;;
25952;SDS011;13750;50.804;8.764;2023-08-06T00:29:14;1.60;;;1.50;;
25952;SDS011;13750;50.804;8.764;2023-08-06T00:31:39;1.83;;;1.60;;
25952;SDS011;13750;50.804;8.764;2023-08-06T00:34:05;1.83;;;1.57;;
25952;SDS011;13750;50.804;8.764;2023-08-06T00:36:30;1.60;;;1.33;;
25952;SDS011;13750;50.804;8.764;2023-08-06T00:38:56;1.50;;;1.27;;
25952;SDS011;13750;50.804;8.764;2023-08-06T00:41:22;2.00;;;1.37;;
25952;SDS011;13750;50.804;8.764;2023-08-06T00:43:47;1.57;;;1.20;;
25952;SDS011;13750;50.804;8.764;2023-08-06T00:46:13;1.70;;;1.40;;
25952;SDS011;13750;50.804;8.764;2023-08-06T00:48:39;1.90;;;1.73;;
25952;SDS011;13750;50.804;8.764;2023-08-06T00:51:06;1.48;;;1.33;;
25952;SDS011;13750;50.804;8.764;2023-08-06T00:53:34;1.63;;;1.52;;
25952;SDS011;13750;50.804;8.764;2023-08-06T00:56:00;1.40;;;1.30;;
25952;SDS011;13750;50.804;8.764;2023-08-06T00:58:26;1.47;;;1.37;;
25952;SDS011;13750;50.804;8.764;2023-08-06T01:00:52;1.50;;;1.40;;
25952;SDS011;13750;50.804;8.764;2023-08-06T01:03:17;1.30;;;1.20;;
25952;SDS011;13750;50.804;8.764;2023-08-06T01:05:43;1.73;;;1.63;;
25952;SDS011;13750;50.804;8.764;2023-08-06T01:08:15;1.37;;;1.27;;
25952;SDS011;13750;50.804;8.764;2023-08-06T01:11:08;1.48;;;1.38;;
25952;SDS011;13750;50.804;8.764;2023-08-06T01:14:02;1.60;;;1.33;;
25952;SDS011;13750;50.804;8.764;2023-08-06T01:16:36;1.25;;;1.15;;
25952;SDS011;13750;50.804;8.764;2023-08-06T01:19:02;1.50;;;1.40;;
25952;SDS011;13750;50.804;8.764;2023-08-06T01:21:28;1.60;;;1.50;;
25952;SDS011;13750;50.804;8.764;2023-08-06T01:23:53;1.70;;;1.60;;
25952;SDS011;13750;50.804;8.764;2023-08-06T01:29:22;1.48;;;1.38;;
25952;SDS011;13750;50.804;8.764;2023-08-06T01:31:52;1.60;;;1.50;;
25952;SDS011;13750;50.804;8.764;2023-08-06T01:34:24;2.08;;;1.70;;
25952;SDS011;13750;50.804;8.764;2023-08-06T01:36:52;1.65;;;1.55;;
25952;SDS011;13750;50.804;8.764;2023-08-06T01:39:18;1.40;;;1.30;;
25952;SDS011;13750;50.804;8.764;2023-08-06T01:41:47;1.67;;;1.48;;
25952;SDS011;13750;50.804;8.764;2023-08-06T01:44:13;1.48;;;1.38;;
25952;SDS011;13750;50.804;8.764;2023-08-06T01:46:39;1.50;;;1.40;;
25952;SDS011;13750;50.804;8.764;2023-08-06T01:49:05;1.37;;;1.27;;
25952;SDS011;13750;50.804;8.764;2023-08-06T01:51:31;1.37;;;1.27;;
25952;SDS011;13750;50.804;8.764;2023-08-06T01:53:56;1.93;;;1.33;;
25952;SDS011;13750;50.804;8.764;2023-08-06T01:56:22;1.30;;;1.20;;
25952;SDS011;13750;50.804;8.764;2023-08-06T01:58:47;1.60;;;1.50;;
25952;SDS011;13750;50.804;8.764;2023-08-06T02:01:13;1.50;;;1.40;;
25952;SDS011;13750;50.804;8.764;2023-08-06T02:03:38;1.20;;;1.10;;
25952;SDS011;13750;50.804;8.764;2023-08-06T02:06:04;2.47;;;1.50;;
25952;SDS011;13750;50.804;8.764;2023-08-06T02:08:30;1.80;;;1.70;;
25952;SDS011;13750;50.804;8.764;2023-08-06T02:10:55;1.70;;;1.60;;
25952;SDS011;13750;50.804;8.764;2023-08-06T02:13:21;2.23;;;1.57;;
25952;SDS011;13750;50.804;8.764;2023-08-06T02:15:46;2.00;;;1.80;;
25952;SDS011;13750;50.804;8.764;2023-08-06T02:18:15;1.60;;;1.50;;
25952;SDS011;13750;50.804;8.764;2023-08-06T02:20:41;2.63;;;1.88;;
25952;SDS011;13750;50.804;8.764;2023-08-06T02:23:07;1.70;;;1.60;;
25952;SDS011;13750;50.804;8.764;2023-08-06T02:25:33;1.60;;;1.50;;
25952;SDS011;13750;50.804;8.764;2023-08-06T02:27:59;1.40;;;1.30;;
25952;SDS011;13750;50.804;8.764;2023-08-06T02:30:25;2.00;;;1.80;;
25952;SDS011;13750;50.804;8.764;2023-08-06T02:32:50;1.50;;;1.40;;
25952;SDS011;13750;50.804;8.764;2023-08-06T02:35:16;1.77;;;1.43;;
25952;SDS011;13750;50.804;8.764;2023-08-06T02:37:41;2.17;;;1.70;;
25952;SDS011;13750;50.804;8.764;2023-08-06T02:40:07;1.40;;;1.30;;
25952;SDS011;13750;50.804;8.764;2023-08-06T02:42:33;1.63;;;1.40;;
25952;SDS011;13750;50.804;8.764;2023-08-06T02:44:58;1.60;;;1.40;;
25952;SDS011;13750;50.804;8.764;2023-08-06T02:47:24;1.93;;;1.50;;
25952;SDS011;13750;50.804;8.764;2023-08-06T02:49:50;2.17;;;1.97;;
25952;SDS011;13750;50.804;8.764;2023-08-06T02:52:15;2.23;;;2.03;;
25952;SDS011;13750;50.804;8.764;2023-08-06T02:54:41;1.83;;;1.73;;
25952;SDS011;13750;50.804;8.764;2023-08-06T02:57:07;2.00;;;1.63;;
25952;SDS011;13750;50.804;8.764;2023-08-06T02:59:33;2.00;;;1.80;;
25952;SDS011;13750;50.804;8.764;2023-08-06T03:01:58;1.90;;;1.70;;
25952;SDS011;13750;50.804;8.764;2023-08-06T03:04:24;1.70;;;1.60;;
25952;SDS011;13750;50.804;8.764;2023-08-06T03:06:50;1.37;;;1.27;;
25952;SDS011;13750;50.804;8.764;2023-08-06T03:09:16;1.63;;;1.40;;
25952;SDS011;13750;50.804;8.764;2023-08-06T03:11:42;1.67;;;1.48;;
25952;SDS011;13750;50.804;8.764;2023-08-06T03:14:07;1.63;;;1.50;;
25952;SDS011;13750;50.804;8.764;2023-08-06T03:16:33;1.90;;;1.80;;
25952;SDS011;13750;50.804;8.764;2023-08-06T03:18:59;1.60;;;1.50;;
25952;SDS011;13750;50.804;8.764;2023-08-06T03:21:24;1.50;;;1.40;;
25952;SDS011;13750;50.804;8.764;2023-08-06T03:23:50;1.80;;;1.60;;
25952;SDS011;13750;50.804;8.764;2023-08-06T03:26:16;1.50;;;1.40;;
25952;SDS011;13750;50.804;8.764;2023-08-06T03:28:41;1.50;;;1.40;;
25952;SDS011;13750;50.804;8.764;2023-08-06T03:31:07;2.30;;;1.80;;
25952;SDS011;13750;50.804;8.764;2023-08-06T03:33:32;1.40;;;1.30;;
25952;SDS011;13750;50.804;8.764;2023-08-06T03:35:58;1.47;;;1.37;;
25952;SDS011;13750;50.804;8.764;2023-08-06T03:38:24;1.30;;;1.20;;
25952;SDS011;13750;50.804;8.764;2023-08-06T03:40:49;1.20;;;1.10;;
25952;SDS011;13750;50.804;8.764;2023-08-06T03:43:15;1.87;;;1.77;;
25952;SDS011;13750;50.804;8.764;2023-08-06T03:45:41;1.47;;;1.30;;
25952;SDS011;13750;50.804;8.764;2023-08-06T03:48:07;1.50;;;1.40;;
25952;SDS011;13750;50.804;8.764;2023-08-06T03:50:33;1.55;;;1.40;;
25952;SDS011;13750;50.804;8.764;2023-08-06T03:52:59;1.87;;;1.60;;
25952;SDS011;13750;50.804;8.764;2023-08-06T03:55:24;2.10;;;1.90;;
25952;SDS011;13750;50.804;8.764;2023-08-06T03:57:50;2.20;;;2.00;;
25952;SDS011;13750;50.804;8.764;2023-08-06T04:00:16;1.80;;;1.70;;
25952;SDS011;13750;50.804;8.764;2023-08-06T04:02:41;2.23;;;2.03;;
25952;SDS011;13750;50.804;8.764;2023-08-06T04:05:07;1.67;;;1.47;;
25952;SDS011;13750;50.804;8.764;2023-08-06T04:07:33;2.20;;;2.00;;
25952;SDS011;13750;50.804;8.764;2023-08-06T04:09:59;2.27;;;1.80;;
25952;SDS011;13750;50.804;8.764;2023-08-06T04:12:26;2.38;;;2.17;;
25952;SDS011;13750;50.804;8.764;2023-08-06T04:14:52;1.87;;;1.77;;
25952;SDS011;13750;50.804;8.764;2023-08-06T04:17:19;1.85;;;1.75;;
25952;SDS011;13750;50.804;8.764;2023-08-06T04:19:54;1.92;;;1.50;;
25952;SDS011;13750;50.804;8.764;2023-08-06T04:22:20;1.98;;;1.80;;
25952;SDS011;13750;50.804;8.764;2023-08-06T04:24:46;1.73;;;1.63;;
25952;SDS011;13750;50.804;8.764;2023-08-06T04:27:13;1.83;;;1.70;;
25952;SDS011;13750;50.804;8.764;2023-08-06T04:29:39;2.03;;;1.83;;
25952;SDS011;13750;50.804;8.764;2023-08-06T04:32:06;1.73;;;1.60;;
25952;SDS011;13750;50.804;8.764;2023-08-06T04:34:32;1.92;;;1.45;;
25952;SDS011;13750;50.804;8.764;2023-08-06T04:36:59;1.77;;;1.67;;
25952;SDS011;13750;50.804;8.764;2023-08-06T04:39:24;1.80;;;1.70;;
25952;SDS011;13750;50.804;8.764;2023-08-06T04:41:50;1.97;;;1.70;;
25952;SDS011;13750;50.804;8.764;2023-08-06T04:44:16;2.50;;;1.90;;
25952;SDS011;13750;50.804;8.764;2023-08-06T04:46:41;1.90;;;1.70;;
25952;SDS011;13750;50.804;8.764;2023-08-06T04:49:07;1.87;;;1.73;;
25952;SDS011;13750;50.804;8.764;2023-08-06T04:51:32;2.13;;;1.93;;
25952;SDS011;13750;50.804;8.764;2023-08-06T04:53:58;1.73;;;1.60;;
25952;SDS011;13750;50.804;8.764;2023-08-06T04:56:23;1.70;;;1.50;;
25952;SDS011;13750;50.804;8.764;2023-08-06T04:58:49;1.70;;;1.60;;
25952;SDS011;13750;50.804;8.764;2023-08-06T05:01:15;1.60;;;1.50;;
25952;SDS011;13750;50.804;8.764;2023-08-06T05:03:41;2.00;;;1.73;;
25952;SDS011;13750;50.804;8.764;2023-08-06T05:06:07;1.83;;;1.50;;
25952;SDS011;13750;50.804;8.764;2023-08-06T05:08:32;1.40;;;1.30;;
25952;SDS011;13750;50.804;8.764;2023-08-06T05:10:58;2.30;;;2.00;;
25952;SDS011;13750;50.804;8.764;2023-08-06T05:13:23;3.37;;;2.80;;
25952;SDS011;13750;50.804;8.764;2023-08-06T05:15:50;3.58;;;2.83;;
25952;SDS011;13750;50.804;8.764;2023-08-06T05:18:16;3.27;;;2.80;;
25952;SDS011;13750;50.804;8.764;2023-08-06T05:20:42;2.90;;;2.50;;
25952;SDS011;13750;50.804;8.764;2023-08-06T05:23:08;2.05;;;1.85;;
25952;SDS011;13750;50.804;8.764;2023-08-06T05:25:34;2.70;;;2.50;;
25952;SDS011;13750;50.804;8.764;2023-08-06T05:30:26;2.03;;;1.83;;
25952;SDS011;13750;50.804;8.764;2023-08-06T05:32:52;1.50;;;1.37;;
25952;SDS011;13750;50.804;8.764;2023-08-06T05:35:18;2.33;;;1.60;;
25952;SDS011;13750;50.804;8.764;2023-08-06T05:37:43;1.87;;;1.67;;
25952;SDS011;13750;50.804;8.764;2023-08-06T05:40:09;2.03;;;1.57;;
25952;SDS011;13750;50.804;8.764;2023-08-06T05:42:34;2.20;;;1.93;;
25952;SDS011;13750;50.804;8.764;2023-08-06T05:45:00;1.57;;;1.40;;
25952;SDS011;13750;50.804;8.764;2023-08-06T05:47:25;1.57;;;1.40;;
25952;SDS011;13750;50.804;8.764;2023-08-06T05:49:51;1.77;;;1.40;;
25952;SDS011;13750;50.804;8.764;2023-08-06T05:52:18;1.50;;;1.40;;
25952;SDS011;13750;50.804;8.764;2023-08-06T05:54:43;1.60;;;1.50;;
25952;SDS011;13750;50.804;8.764;2023-08-06T05:57:09;2.17;;;1.83;;
25952;SDS011;13750;50.804;8.764;2023-08-06T05:59:34;1.60;;;1.47;;
25952;SDS011;13750;50.804;8.764;2023-08-06T06:02:00;1.67;;;1.50;;
25952;SDS011;13750;50.804;8.764;2023-08-06T06:04:26;1.83;;;1.67;;
25952;SDS011;13750;50.804;8.764;2023-08-06T06:06:52;1.70;;;1.60;;
25952;SDS011;13750;50.804;8.764;2023-08-06T06:09:17;1.80;;;1.70;;
25952;SDS011;13750;50.804;8.764;2023-08-06T06:11:43;2.20;;;1.60;;
25952;SDS011;13750;50.804;8.764;2023-08-06T06:14:08;1.50;;;1.40;;
25952;SDS011;13750;50.804;8.764;2023-08-06T06:16:34;1.63;;;1.53;;
25952;SDS011;13750;50.804;8.764;2023-08-06T06:19:00;1.63;;;1.53;;
25952;SDS011;13750;50.804;8.764;2023-08-06T06:21:25;1.77;;;1.67;;
25952;SDS011;13750;50.804;8.764;2023-08-06T06:23:51;2.33;;;1.90;;
25952;SDS011;13750;50.804;8.764;2023-08-06T06:26:19;1.73;;;1.63;;
25952;SDS011;13750;50.804;8.764;2023-08-06T06:28:45;1.65;;;1.20;;
25952;SDS011;13750;50.804;8.764;2023-08-06T06:31:10;1.37;;;1.27;;
25952;SDS011;13750;50.804;8.764;2023-08-06T06:33:36;1.40;;;1.30;;
25952;SDS011;13750;50.804;8.764;2023-08-06T06:36:02;1.67;;;1.40;;
25952;SDS011;13750;50.804;8.764;2023-08-06T06:38:32;1.45;;;1.25;;
25952;SDS011;13750;50.804;8.764;2023-08-06T06:40:58;1.20;;;1.10;;
25952;SDS011;13750;50.804;8.764;2023-08-06T06:43:24;1.37;;;1.23;;
25952;SDS011;13750;50.804;8.764;2023-08-06T06:45:55;1.60;;;1.50;;
25952;SDS011;13750;50.804;8.764;2023-08-06T06:48:23;1.50;;;1.40;;
25952;SDS011;13750;50.804;8.764;2023-08-06T06:50:49;1.88;;;1.35;;
25952;SDS011;13750;50.804;8.764;2023-08-06T06:53:14;1.60;;;1.33;;
25952;SDS011;13750;50.804;8.764;2023-08-06T06:55:40;3.60;;;2.00;;
25952;SDS011;13750;50.804;8.764;2023-08-06T06:58:06;3.20;;;2.23;;
25952;SDS011;13750;50.804;8.764;2023-08-06T07:00:31;3.40;;;1.93;;
25952;SDS011;13750;50.804;8.764;2023-08-06T07:02:57;2.53;;;2.23;;
25952;SDS011;13750;50.804;8.764;2023-08-06T07:05:22;3.70;;;2.20;;
25952;SDS011;13750;50.804;8.764;2023-08-06T07:07:48;4.17;;;1.80;;
25952;SDS011;13750;50.804;8.764;2023-08-06T07:10:13;2.23;;;2.03;;
25952;SDS011;13750;50.804;8.764;2023-08-06T07:12:39;2.37;;;2.00;;
25952;SDS011;13750;50.804;8.764;2023-08-06T07:15:06;1.97;;;1.40;;
25952;SDS011;13750;50.804;8.764;2023-08-06T07:17:31;2.25;;;2.00;;
25952;SDS011;13750;50.804;8.764;2023-08-06T07:19:57;1.90;;;1.30;;
25952;SDS011;13750;50.804;8.764;2023-08-06T07:22:23;1.60;;;1.30;;
25952;SDS011;13750;50.804;8.764;2023-08-06T07:24:49;2.53;;;1.73;;
25952;SDS011;13750;50.804;8.764;2023-08-06T07:27:14;1.83;;;1.50;;
25952;SDS011;13750;50.804;8.764;2023-08-06T07:29:40;1.40;;;1.30;;
25952;SDS011;13750;50.804;8.764;2023-08-06T07:32:06;1.70;;;1.60;;
25952;SDS011;13750;50.804;8.764;2023-08-06T07:34:32;1.55;;;1.35;;
25952;SDS011;13750;50.804;8.764;2023-08-06T07:36:57;1.30;;;1.20;;
25952;SDS011;13750;50.804;8.764;2023-08-06T07:39:23;1.60;;;1.20;;
25952;SDS011;13750;50.804;8.764;2023-08-06T07:41:49;1.70;;;1.20;;
25952;SDS011;13750;50.804;8.764;2023-08-06T07:44:14;1.53;;;1.43;;
25952;SDS011;13750;50.804;8.764;2023-08-06T07:46:40;1.70;;;1.50;;
25952;SDS011;13750;50.804;8.764;2023-08-06T07:49:06;1.70;;;1.60;;
25952;SDS011;13750;50.804;8.764;2023-08-06T07:51:31;2.80;;;1.70;;
25952;SDS011;13750;50.804;8.764;2023-08-06T07:53:57;1.40;;;1.30;;
25952;SDS011;13750;50.804;8.764;2023-08-06T07:56:22;2.43;;;1.60;;
25952;SDS011;13750;50.804;8.764;2023-08-06T07:58:48;1.60;;;1.50;;
25952;SDS011;13750;50.804;8.764;2023-08-06T08:01:14;1.33;;;1.20;;
25952;SDS011;13750;50.804;8.764;2023-08-06T08:03:39;1.60;;;1.10;;
25952;SDS011;13750;50.804;8.764;2023-08-06T08:06:05;1.40;;;1.20;;
25952;SDS011;13750;50.804;8.764;2023-08-06T08:08:30;1.57;;;0.90;;
25952;SDS011;13750;50.804;8.764;2023-08-06T08:10:56;0.87;;;0.67;;
25952;SDS011;13750;50.804;8.764;2023-08-06T08:13:23;0.98;;;0.60;;
25952;SDS011;13750;50.804;8.764;2023-08-06T08:15:49;0.70;;;0.70;;
25952;SDS011;13750;50.804;8.764;2023-08-06T08:18:15;1.00;;;0.60;;
25952;SDS011;13750;50.804;8.764;2023-08-06T08:20:40;0.70;;;0.70;;
25952;SDS011;13750;50.804;8.764;2023-08-06T08:23:06;0.60;;;0.60;;
25952;SDS011;13750;50.804;8.764;2023-08-06T08:25:31;0.60;;;0.50;;
25952;SDS011;13750;50.804;8.764;2023-08-06T08:27:59;0.50;;;0.50;;
25952;SDS011;13750;50.804;8.764;2023-08-06T08:30:24;1.03;;;0.70;;
25952;SDS011;13750;50.804;8.764;2023-08-06T08:32:50;1.93;;;0.60;;
25952;SDS011;13750;50.804;8.764;2023-08-06T08:35:15;0.70;;;0.60;;
25952;SDS011;13750;50.804;8.764;2023-08-06T08:37:41;0.70;;;0.60;;
25952;SDS011;13750;50.804;8.764;2023-08-06T08:40:10;1.00;;;0.70;;
25952;SDS011;13750;50.804;8.764;2023-08-06T08:42:42;0.90;;;0.80;;
25952;SDS011;13750;50.804;8.764;2023-08-06T08:45:13;0.70;;;0.57;;
25952;SDS011;13750;50.804;8.764;2023-08-06T08:47:43;2.05;;;1.35;;
25952;SDS011;13750;50.804;8.764;2023-08-06T08:50:11;0.70;;;0.60;;
25952;SDS011;13750;50.804;8.764;2023-08-06T08:52:40;0.80;;;0.55;;
25952;SDS011;13750;50.804;8.764;2023-08-06T08:55:07;1.23;;;0.50;;
25952;SDS011;13750;50.804;8.764;2023-08-06T09:00:00;0.88;;;0.70;;
25952;SDS011;13750;50.804;8.764;2023-08-06T09:02:28;0.63;;;0.63;;
25952;SDS011;13750;50.804;8.764;2023-08-06T09:04:57;0.70;;;0.60;;
25952;SDS011;13750;50.804;8.764;2023-08-06T09:07:35;0.75;;;0.55;;
25952;SDS011;13750;50.804;8.764;2023-08-06T09:10:07;0.70;;;0.65;;
25952;SDS011;13750;50.804;8.764;2023-08-06T09:12:36;0.57;;;0.57;;
25952;SDS011;13750;50.804;8.764;2023-08-06T09:15:13;0.55;;;0.50;;
25952;SDS011;13750;50.804;8.764;2023-08-06T09:17:38;0.40;;;0.40;;
25952;SDS011;13750;50.804;8.764;2023-08-06T09:20:14;0.50;;;0.40;;
25952;SDS011;13750;50.804;8.764;2023-08-06T09:22:43;0.40;;;0.40;;
25952;SDS011;13750;50.804;8.764;2023-08-06T09:25:13;0.80;;;0.60;;
25952;SDS011;13750;50.804;8.764;2023-08-06T09:27:48;0.85;;;0.50;;
25952;SDS011;13750;50.804;8.764;2023-08-06T09:32:53;1.00;;;0.60;;
25952;SDS011;13750;50.804;8.764;2023-08-06T09:35:19;0.50;;;0.50;;
25952;SDS011;13750;50.804;8.764;2023-08-06T09:37:46;0.40;;;0.40;;
25952;SDS011;13750;50.804;8.764;2023-08-06T09:40:28;0.80;;;0.57;;
25952;SDS011;13750;50.804;8.764;2023-08-06T09:42:56;0.52;;;0.50;;
25952;SDS011;13750;50.804;8.764;2023-08-06T09:45:23;0.50;;;0.50;;
25952;SDS011;13750;50.804;8.764;2023-08-06T09:47:56;0.50;;;0.40;;
25952;SDS011;13750;50.804;8.764;2023-08-06T09:50:22;0.70;;;0.57;;
25952;SDS011;13750;50.804;8.764;2023-08-06T09:52:52;0.32;;;0.32;;
25952;SDS011;13750;50.804;8.764;2023-08-06T09:55:18;0.40;;;0.40;;
25952;SDS011;13750;50.804;8.764;2023-08-06T09:57:44;0.40;;;0.40;;
25952;SDS011;13750;50.804;8.764;2023-08-06T10:00:11;0.50;;;0.47;;
25952;SDS011;13750;50.804;8.764;2023-08-06T10:02:38;0.60;;;0.60;;
25952;SDS011;13750;50.804;8.764;2023-08-06T10:05:04;0.88;;;0.65;;
25952;SDS011;13750;50.804;8.764;2023-08-06T10:09:56;0.60;;;0.35;;
25952;SDS011;13750;50.804;8.764;2023-08-06T10:12:22;0.40;;;0.40;;
25952;SDS011;13750;50.804;8.764;2023-08-06T10:14:51;0.30;;;0.30;;
25952;SDS011;13750;50.804;8.764;2023-08-06T10:17:21;0.40;;;0.40;;
25952;SDS011;13750;50.804;8.764;2023-08-06T10:19:48;0.43;;;0.40;;
25952;SDS011;13750;50.804;8.764;2023-08-06T10:22:16;0.77;;;0.30;;
25952;SDS011;13750;50.804;8.764;2023-08-06T10:27:31;0.50;;;0.30;;
25952;SDS011;13750;50.804;8.764;2023-08-06T10:30:25;0.30;;;0.30;;
25952;SDS011;13750;50.804;8.764;2023-08-06T10:33:05;0.63;;;0.30;;
25952;SDS011;13750;50.804;8.764;2023-08-06T10:38:02;0.57;;;0.30;;
25952;SDS011;13750;50.804;8.764;2023-08-06T10:43:25;1.15;;;0.50;;
25952;SDS011;13750;50.804;8.764;2023-08-06T10:45:52;0.60;;;0.20;;
25952;SDS011;13750;50.804;8.764;2023-08-06T10:48:39;0.20;;;0.20;;
25952;SDS011;13750;50.804;8.764;2023-08-06T10:51:10;0.22;;;0.20;;
25952;SDS011;13750;50.804;8.764;2023-08-06T10:53:38;0.20;;;0.20;;
25952;SDS011;13750;50.804;8.764;2023-08-06T10:56:13;0.52;;;0.30;;
25952;SDS011;13750;50.804;8.764;2023-08-06T10:58:40;0.20;;;0.20;;
25952;SDS011;13750;50.804;8.764;2023-08-06T11:01:06;0.28;;;0.20;;
25952;SDS011;13750;50.804;8.764;2023-08-06T11:03:32;0.20;;;0.20;;
25952;SDS011;13750;50.804;8.764;2023-08-06T11:05:59;0.38;;;0.38;;
25952;SDS011;13750;50.804;8.764;2023-08-06T11:08:28;0.67;;;0.30;;
25952;SDS011;13750;50.804;8.764;2023-08-06T11:11:19;0.60;;;0.30;;
25952;SDS011;13750;50.804;8.764;2023-08-06T11:13:45;0.30;;;0.30;;
25952;SDS011;13750;50.804;8.764;2023-08-06T11:16:19;0.38;;;0.38;;
25952;SDS011;13750;50.804;8.764;2023-08-06T11:18:46;0.28;;;0.28;;
25952;SDS011;13750;50.804;8.764;2023-08-06T11:21:12;0.30;;;0.20;;
25952;SDS011;13750;50.804;8.764;2023-08-06T11:23:38;0.73;;;0.20;;
25952;SDS011;13750;50.804;8.764;2023-08-06T11:26:05;0.20;;;0.20;;
25952;SDS011;13750;50.804;8.764;2023-08-06T11:28:32;0.20;;;0.20;;
25952;SDS011;13750;50.804;8.764;2023-08-06T11:30:58;1.00;;;0.20;;
25952;SDS011;13750;50.804;8.764;2023-08-06T11:33:27;0.40;;;0.10;;
25952;SDS011;13750;50.804;8.764;2023-08-06T11:35:56;0.20;;;0.20;;
25952;SDS011;13750;50.804;8.764;2023-08-06T11:38:29;0.20;;;0.10;;
25952;SDS011;13750;50.804;8.764;2023-08-06T11:40:55;0.47;;;0.38;;
25952;SDS011;13750;50.804;8.764;2023-08-06T11:43:21;0.70;;;0.70;;
25952;SDS011;13750;50.804;8.764;2023-08-06T11:45:47;0.20;;;0.20;;
25952;SDS011;13750;50.804;8.764;2023-08-06T11:50:39;0.13;;;0.13;;
25952;SDS011;13750;50.804;8.764;2023-08-06T11:53:05;0.10;;;0.10;;
25952;SDS011;13750;50.804;8.764;2023-08-06T11:55:31;0.10;;;0.10;;
25952;SDS011;13750;50.804;8.764;2023-08-06T11:57:57;0.35;;;0.20;;
25952;SDS011;13750;50.804;8.764;2023-08-06T12:00:24;0.20;;;0.20;;
25952;SDS011;13750;50.804;8.764;2023-08-06T12:02:50;0.22;;;0.20;;
25952;SDS011;13750;50.804;8.764;2023-08-06T12:05:21;0.10;;;0.10;;
25952;SDS011;13750;50.804;8.764;2023-08-06T12:07:49;0.20;;;0.20;;
25952;SDS011;13750;50.804;8.764;2023-08-06T12:10:16;0.55;;;0.10;;
25952;SDS011;13750;50.804;8.764;2023-08-06T12:12:47;0.95;;;0.55;;
25952;SDS011;13750;50.804;8.764;2023-08-06T12:15:13;0.32;;;0.32;;
25952;SDS011;13750;50.804;8.764;2023-08-06T12:17:39;0.20;;;0.20;;
25952;SDS011;13750;50.804;8.764;2023-08-06T12:20:05;1.00;;;0.25;;
25952;SDS011;13750;50.804;8.764;2023-08-06T12:22:32;0.47;;;0.40;;
25952;SDS011;13750;50.804;8.764;2023-08-06T12:25:03;0.20;;;0.20;;
25952;SDS011;13750;50.804;8.764;2023-08-06T12:27:34;0.25;;;0.25;;
25952;SDS011;13750;50.804;8.764;2023-08-06T12:30:00;0.47;;;0.47;;
25952;SDS011;13750;50.804;8.764;2023-08-06T12:32:26;0.30;;;0.30;;
25952;SDS011;13750;50.804;8.764;2023-08-06T12:34:52;1.97;;;0.60;;
25952;SDS011;13750;50.804;8.764;2023-08-06T12:37:17;0.70;;;0.30;;
25952;SDS011;13750;50.804;8.764;2023-08-06T12:39:43;0.40;;;0.37;;
25952;SDS011;13750;50.804;8.764;2023-08-06T12:42:08;0.87;;;0.60;;
25952;SDS011;13750;50.804;8.764;2023-08-06T12:44:35;0.82;;;0.50;;
25952;SDS011;13750;50.804;8.764;2023-08-06T12:47:01;0.40;;;0.40;;
25952;SDS011;13750;50.804;8.764;2023-08-06T12:49:27;0.85;;;0.50;;
25952;SDS011;13750;50.804;8.764;2023-08-06T12:51:53;0.32;;;0.30;;
25952;SDS011;13750;50.804;8.764;2023-08-06T12:54:19;0.50;;;0.50;;
25952;SDS011;13750;50.804;8.764;2023-08-06T12:56:46;0.57;;;0.57;;
25952;SDS011;13750;50.804;8.764;2023-08-06T12:59:13;1.02;;;0.50;;
25952;SDS011;13750;50.804;8.764;2023-08-06T13:01:41;0.30;;;0.30;;
25952;SDS011;13750;50.804;8.764;2023-08-06T13:04:07;0.60;;;0.60;;
25952;SDS011;13750;50.804;8.764;2023-08-06T13:06:32;0.73;;;0.70;;
25952;SDS011;13750;50.804;8.764;2023-08-06T13:09:02;1.13;;;0.75;;
25952;SDS011;13750;50.804;8.764;2023-08-06T13:13:54;0.95;;;0.93;;
25952;SDS011;13750;50.804;8.764;2023-08-06T13:16:19;0.80;;;0.80;;
25952;SDS011;13750;50.804;8.764;2023-08-06T13:18:45;0.60;;;0.60;;
25952;SDS011;13750;50.804;8.764;2023-08-06T13:21:10;0.80;;;0.60;;
25952;SDS011;13750;50.804;8.764;2023-08-06T13:23:36;0.60;;;0.50;;
25952;SDS011;13750;50.804;8.764;2023-08-06T13:26:02;0.83;;;0.47;;
25952;SDS011;13750;50.804;8.764;2023-08-06T13:28:27;0.50;;;0.47;;
25952;SDS011;13750;50.804;8.764;2023-08-06T13:30:53;0.53;;;0.30;;
25952;SDS011;13750;50.804;8.764;2023-08-06T13:33:18;0.80;;;0.60;;
25952;SDS011;13750;50.804;8.764;2023-08-06T13:35:44;0.40;;;0.40;;
25952;SDS011;13750;50.804;8.764;2023-08-06T13:38:09;0.30;;;0.30;;
25952;SDS011;13750;50.804;8.764;2023-08-06T13:40:35;0.35;;;0.30;;
25952;SDS011;13750;50.804;8.764;2023-08-06T13:43:01;0.27;;;0.27;;
25952;SDS011;13750;50.804;8.764;2023-08-06T13:45:26;1.73;;;1.00;;
25952;SDS011;13750;50.804;8.764;2023-08-06T13:47:52;0.70;;;0.60;;
25952;SDS011;13750;50.804;8.764;2023-08-06T13:50:20;0.40;;;0.20;;
25952;SDS011;13750;50.804;8.764;2023-08-06T13:52:47;0.32;;;0.22;;
25952;SDS011;13750;50.804;8.764;2023-08-06T13:55:12;0.47;;;0.30;;
25952;SDS011;13750;50.804;8.764;2023-08-06T13:57:38;0.20;;;0.20;;
25952;SDS011;13750;50.804;8.764;2023-08-06T14:00:04;0.63;;;0.27;;
25952;SDS011;13750;50.804;8.764;2023-08-06T14:02:30;0.20;;;0.20;;
25952;SDS011;13750;50.804;8.764;2023-08-06T14:04:56;0.73;;;0.53;;
25952;SDS011;13750;50.804;8.764;2023-08-06T14:07:22;0.30;;;0.20;;
25952;SDS011;13750;50.804;8.764;2023-08-06T14:09:47;1.80;;;0.10;;
25952;SDS011;13750;50.804;8.764;2023-08-06T14:14:39;0.20;;;0.20;;
25952;SDS011;13750;50.804;8.764;2023-08-06T14:17:05;0.10;;;0.10;;
25952;SDS011;13750;50.804;8.764;2023-08-06T14:19:31;0.23;;;0.10;;
25952;SDS011;13750;50.804;8.764;2023-08-06T14:21:56;0.13;;;0.13;;
25952;SDS011;13750;50.804;8.764;2023-08-06T14:24:22;0.10;;;0.10;;
25952;SDS011;13750;50.804;8.764;2023-08-06T14:26:48;0.10;;;0.10;;
25952;SDS011;13750;50.804;8.764;2023-08-06T14:29:13;0.20;;;0.20;;
25952;SDS011;13750;50.804;8.764;2023-08-06T14:31:39;0.20;;;0.20;;
25952;SDS011;13750;50.804;8.764;2023-08-06T14:34:05;0.13;;;0.13;;
25952;SDS011;13750;50.804;8.764;2023-08-06T14:36:31;0.10;;;0.10;;
25952;SDS011;13750;50.804;8.764;2023-08-06T14:38:57;0.20;;;0.20;;
25952;SDS011;13750;50.804;8.764;2023-08-06T14:41:23;0.20;;;0.20;;
25952;SDS011;13750;50.804;8.764;2023-08-06T14:43:49;0.17;;;0.10;;
25952;SDS011;13750;50.804;8.764;2023-08-06T14:46:15;0.10;;;0.10;;
25952;SDS011;13750;50.804;8.764;2023-08-06T14:48:40;0.20;;;0.20;;
25952;SDS011;13750;50.804;8.764;2023-08-06T14:51:07;0.10;;;0.10;;
25952;SDS011;13750;50.804;8.764;2023-08-06T14:53:33;0.20;;;0.20;;
25952;SDS011;13750;50.804;8.764;2023-08-06T14:55:58;0.30;;;0.30;;
25952;SDS011;13750;50.804;8.764;2023-08-06T14:58:24;0.20;;;0.20;;
25952;SDS011;13750;50.804;8.764;2023-08-06T15:00:49;0.37;;;0.27;;
25952;SDS011;13750;50.804;8.764;2023-08-06T15:03:15;0.13;;;0.13;;
25952;SDS011;13750;50.804;8.764;2023-08-06T15:05:43;0.20;;;0.20;;
25952;SDS011;13750;50.804;8.764;2023-08-06T15:08:09;0.30;;;0.20;;
25952;SDS011;13750;50.804;8.764;2023-08-06T15:10:35;0.20;;;0.20;;
25952;SDS011;13750;50.804;8.764;2023-08-06T15:13:00;0.20;;;0.20;;